createdAt,value
2022-10-19T00:02:09.637Z,100.00
2022-10-19T00:04:37.098Z,100.00
2022-10-19T00:07:04.607Z,100.00
2022-10-19T00:09:32.024Z,100.00
2022-10-19T00:11:59.450Z,100.00
2022-10-19T00:14:27.045Z,100.00
2022-10-19T00:16:55.500Z,100.00
2022-10-19T00:19:27.547Z,100.00
2022-10-19T00:21:55.564Z,100.00
2022-10-19T00:24:23.439Z,100.00
2022-10-19T00:26:50.908Z,100.00
2022-10-19T00:29:18.558Z,100.00
2022-10-19T00:31:45.981Z,100.00
2022-10-19T00:34:13.418Z,100.00
2022-10-19T00:36:42.734Z,100.00
2022-10-19T00:39:13.368Z,100.00
2022-10-19T00:41:42.035Z,100.00
2022-10-19T00:44:42.706Z,100.00
2022-10-19T00:47:10.160Z,100.00
2022-10-19T00:49:41.400Z,100.00
2022-10-19T00:52:13.870Z,100.00
2022-10-19T00:54:44.672Z,100.00
2022-10-19T00:57:13.224Z,100.00
2022-10-19T00:59:42.900Z,100.00
2022-10-19T01:02:10.560Z,100.00
2022-10-19T01:04:41.176Z,100.00
2022-10-19T01:07:10.291Z,100.00
2022-10-19T01:09:37.731Z,100.00
2022-10-19T01:12:10.520Z,100.00
2022-10-19T01:14:48.806Z,100.00
2022-10-19T01:17:29.336Z,100.00
2022-10-19T01:20:33.851Z,100.00
2022-10-19T01:23:16.746Z,100.00
2022-10-19T01:25:54.976Z,100.00
2022-10-19T01:28:39.137Z,100.00
2022-10-19T01:31:18.659Z,100.00
2022-10-19T01:33:51.794Z,100.00
2022-10-19T01:36:23.909Z,100.00
2022-10-19T01:38:59.491Z,100.00
2022-10-19T01:41:36.660Z,100.00
2022-10-19T01:44:12.537Z,100.00
2022-10-19T01:46:44.378Z,100.00
2022-10-19T01:49:16.906Z,100.00
2022-10-19T01:51:48.717Z,100.00
2022-10-19T01:54:18.809Z,100.00
2022-10-19T01:56:49.530Z,100.00
2022-10-19T01:59:19.822Z,100.00
2022-10-19T02:01:50.940Z,100.00
2022-10-19T02:04:20.812Z,100.00
2022-10-19T02:06:48.411Z,100.00
2022-10-19T02:09:18.159Z,100.00
2022-10-19T02:11:49.675Z,100.00
2022-10-19T02:14:23.427Z,100.00
2022-10-19T02:16:55.460Z,100.00
2022-10-19T02:21:58.161Z,100.00
2022-10-19T02:24:25.680Z,100.00
2022-10-19T02:26:53.617Z,100.00
2022-10-19T02:29:21.400Z,100.00
2022-10-19T02:31:49.142Z,100.00
2022-10-19T02:34:18.043Z,100.00
2022-10-19T02:36:45.675Z,100.00
2022-10-19T02:39:13.205Z,100.00
2022-10-19T02:41:45.483Z,100.00
2022-10-19T02:44:19.421Z,100.00
2022-10-19T02:46:52.945Z,100.00
2022-10-19T02:49:22.471Z,100.00
2022-10-19T02:51:59.164Z,100.00
2022-10-19T02:54:27.133Z,100.00
2022-10-19T02:56:54.695Z,100.00
2022-10-19T02:59:22.165Z,100.00
2022-10-19T03:01:49.846Z,100.00
2022-10-19T03:04:17.477Z,100.00
2022-10-19T03:06:46.268Z,100.00
2022-10-19T03:09:13.740Z,100.00
2022-10-19T03:11:41.174Z,100.00
2022-10-19T03:14:08.800Z,100.00
2022-10-19T03:16:36.220Z,100.00
2022-10-19T03:19:03.739Z,100.00
2022-10-19T03:21:31.136Z,100.00
2022-10-19T03:24:00.573Z,100.00
2022-10-19T03:26:28.355Z,100.00
2022-10-19T03:28:55.807Z,100.00
2022-10-19T03:31:23.420Z,100.00
2022-10-19T03:33:50.927Z,100.00
2022-10-19T03:36:22.085Z,100.00
2022-10-19T03:38:51.468Z,100.00
2022-10-19T03:41:20.947Z,100.00
2022-10-19T03:43:48.511Z,100.00
2022-10-19T03:46:16.125Z,100.00
2022-10-19T03:48:44.035Z,100.00
2022-10-19T03:51:13.855Z,100.00
2022-10-19T03:53:42.243Z,100.00
2022-10-19T03:56:13.590Z,100.00
2022-10-19T03:58:44.312Z,100.00
2022-10-19T04:01:14.010Z,100.00
2022-10-19T04:03:41.780Z,100.00
2022-10-19T04:06:12.024Z,100.00
2022-10-19T04:08:39.542Z,100.00
2022-10-19T04:11:10.403Z,100.00
2022-10-19T04:13:38.094Z,100.00
2022-10-19T04:16:07.958Z,100.00
2022-10-19T04:18:35.382Z,100.00
2022-10-19T04:21:05.028Z,100.00
2022-10-19T04:23:34.325Z,100.00
2022-10-19T04:26:02.205Z,100.00
2022-10-19T04:28:30.099Z,100.00
2022-10-19T04:30:57.708Z,100.00
2022-10-19T04:33:26.496Z,100.00
2022-10-19T04:35:59.021Z,100.00
2022-10-19T04:38:26.644Z,100.00
2022-10-19T04:40:54.091Z,100.00
2022-10-19T04:43:21.523Z,100.00
2022-10-19T04:45:48.977Z,100.00
2022-10-19T04:48:16.400Z,100.00
2022-10-19T04:50:45.167Z,100.00
2022-10-19T04:53:12.728Z,100.00
2022-10-19T04:55:41.768Z,100.00
2022-10-19T04:58:09.488Z,100.00
2022-10-19T05:00:39.266Z,100.00
2022-10-19T05:03:06.799Z,100.00
2022-10-19T05:05:34.975Z,100.00
2022-10-19T05:08:03.736Z,100.00
2022-10-19T05:10:31.212Z,100.00
2022-10-19T05:12:58.674Z,100.00
2022-10-19T05:15:26.156Z,100.00
2022-10-19T05:17:53.684Z,100.00
2022-10-19T05:20:21.156Z,100.00
2022-10-19T05:22:48.670Z,100.00
2022-10-19T05:25:18.352Z,100.00
2022-10-19T05:27:45.804Z,100.00
2022-10-19T05:30:14.399Z,100.00
2022-10-19T05:32:41.813Z,100.00
2022-10-19T05:35:09.655Z,100.00
2022-10-19T05:37:37.308Z,100.00
2022-10-19T05:40:05.588Z,100.00
2022-10-19T05:42:34.354Z,100.00
2022-10-19T05:45:01.798Z,100.00
2022-10-19T05:47:31.011Z,100.00
2022-10-19T05:49:58.698Z,100.00
2022-10-19T05:52:26.102Z,100.00
2022-10-19T05:54:53.946Z,100.00
2022-10-19T05:57:21.331Z,100.00
2022-10-19T05:59:50.055Z,100.00
2022-10-19T06:02:17.555Z,100.00
2022-10-19T06:04:44.967Z,100.00
2022-10-19T06:07:12.372Z,100.00
2022-10-19T06:09:39.771Z,100.00
2022-10-19T06:12:07.236Z,100.00
2022-10-19T06:14:34.696Z,100.00
2022-10-19T06:17:03.482Z,100.00
2022-10-19T06:19:30.903Z,100.00
2022-10-19T06:21:58.287Z,100.00
2022-10-19T06:24:25.702Z,100.00
2022-10-19T06:26:53.109Z,100.00
2022-10-19T06:29:20.518Z,100.00
2022-10-19T06:31:48.775Z,100.00
2022-10-19T06:34:17.704Z,100.00
2022-10-19T06:36:45.230Z,100.00
2022-10-19T06:39:12.651Z,100.00
2022-10-19T06:41:40.079Z,100.00
2022-10-19T06:44:07.475Z,100.00
2022-10-19T06:46:34.872Z,100.00
2022-10-19T06:49:03.146Z,100.00
2022-10-19T06:51:33.922Z,100.00
2022-10-19T06:54:01.396Z,100.00
2022-10-19T06:56:28.849Z,100.00
2022-10-19T06:58:58.660Z,100.00
2022-10-19T07:01:26.579Z,100.00
2022-10-19T07:03:55.135Z,100.00
2022-10-19T07:06:22.823Z,100.00
2022-10-19T07:08:53.004Z,100.00
2022-10-19T07:11:22.234Z,100.00
2022-10-19T07:13:49.767Z,100.00
2022-10-19T07:16:20.968Z,100.00
2022-10-19T07:18:50.094Z,100.00
2022-10-19T07:21:18.559Z,100.00
2022-10-19T07:23:47.136Z,100.00
2022-10-19T07:26:18.476Z,100.00
2022-10-19T07:28:47.616Z,100.00
2022-10-19T07:31:17.833Z,100.00
2022-10-19T07:33:45.758Z,100.00
2022-10-19T07:36:14.431Z,100.00
2022-10-19T07:38:41.936Z,100.00
2022-10-19T07:41:12.570Z,100.00
2022-10-19T07:43:42.434Z,100.00
2022-10-19T07:46:12.257Z,100.00
2022-10-19T07:48:39.693Z,100.00
2022-10-19T07:51:10.067Z,100.00
2022-10-19T07:53:38.454Z,100.00
2022-10-19T07:56:07.448Z,100.00
2022-10-19T07:58:36.433Z,100.00
2022-10-19T08:01:07.668Z,100.00
2022-10-19T08:06:24.079Z,100.00
2022-10-19T08:08:52.511Z,100.00
2022-10-19T08:11:22.424Z,100.00
2022-10-19T08:13:49.920Z,100.00
2022-10-19T08:16:27.147Z,100.00
2022-10-19T08:18:58.402Z,100.00
2022-10-19T08:21:26.139Z,99.11
2022-10-19T08:23:53.570Z,99.50
2022-10-19T08:26:21.606Z,98.10
2022-10-19T08:28:49.160Z,97.58
2022-10-19T08:31:18.838Z,96.55
2022-10-19T08:33:47.767Z,96.40
2022-10-19T08:36:15.222Z,96.00
2022-10-19T08:38:44.951Z,95.67
2022-10-19T08:41:28.059Z,95.06
2022-10-19T08:44:07.735Z,94.83
2022-10-19T08:46:47.555Z,94.40
2022-10-19T08:49:20.093Z,93.99
2022-10-19T08:51:52.300Z,94.08
2022-10-19T08:54:20.319Z,93.07
2022-10-19T08:57:04.074Z,93.65
2022-10-19T08:59:38.606Z,93.61
2022-10-19T09:02:14.645Z,93.39
2022-10-19T09:04:50.132Z,94.77
2022-10-19T09:07:24.420Z,93.89
2022-10-19T09:09:56.786Z,94.95
2022-10-19T09:12:34.743Z,95.82
2022-10-19T09:15:04.899Z,96.28
2022-10-19T09:17:33.217Z,95.70
2022-10-19T09:20:16.000Z,94.17
2022-10-19T09:22:44.589Z,94.90
2022-10-19T09:25:19.140Z,93.64
2022-10-19T09:27:49.980Z,94.70
2022-10-19T09:30:20.650Z,95.09
2022-10-19T09:32:49.996Z,96.57
2022-10-19T09:35:27.546Z,96.80
2022-10-19T09:37:55.839Z,96.10
2022-10-19T09:40:25.644Z,97.08
2022-10-19T09:42:57.125Z,96.86
2022-10-19T09:45:36.524Z,96.54
2022-10-19T09:48:14.935Z,96.77
2022-10-19T09:50:45.421Z,97.77
2022-10-19T09:53:20.354Z,98.23
2022-10-19T09:55:52.187Z,98.88
2022-10-19T09:58:21.404Z,98.67
2022-10-19T10:00:51.383Z,98.00
2022-10-19T10:03:25.618Z,97.20
2022-10-19T10:05:56.381Z,97.72
2022-10-19T10:08:26.786Z,97.46
2022-10-19T10:11:00.388Z,97.43
2022-10-19T10:13:28.512Z,95.80
2022-10-19T10:15:58.592Z,96.46
2022-10-19T10:18:28.608Z,95.80
2022-10-19T10:21:04.819Z,95.82
2022-10-19T10:23:36.355Z,95.13
2022-10-19T10:26:06.496Z,94.83
2022-10-19T10:28:33.920Z,93.71
2022-10-19T10:31:04.466Z,92.69
2022-10-19T10:36:29.910Z,92.69
2022-10-19T10:41:40.231Z,93.15
2022-10-19T10:44:16.149Z,91.59
2022-10-19T10:46:53.468Z,92.61
2022-10-19T10:49:24.069Z,93.26
2022-10-19T10:51:56.479Z,94.07
2022-10-19T10:54:25.406Z,94.19
2022-10-19T10:57:06.316Z,95.01
2022-10-19T10:59:41.733Z,93.79
2022-10-19T11:02:19.301Z,93.45
2022-10-19T11:04:52.570Z,94.00
2022-10-19T11:07:24.541Z,93.68
2022-10-19T11:09:55.152Z,93.65
2022-10-19T11:12:35.116Z,93.65
2022-10-19T11:15:11.868Z,93.70
2022-10-19T11:17:44.862Z,92.68
2022-10-19T11:20:16.600Z,92.46
2022-10-19T11:22:52.018Z,93.10
2022-10-19T11:25:29.446Z,94.04
2022-10-19T11:28:07.276Z,93.96
2022-10-19T11:30:43.286Z,92.61
2022-10-19T11:33:20.168Z,92.53
2022-10-19T11:35:52.963Z,94.00
2022-10-19T11:38:34.817Z,92.00
2022-10-19T11:41:18.315Z,93.36
2022-10-19T11:43:59.114Z,92.47
2022-10-19T11:46:33.380Z,91.99
2022-10-19T11:49:11.506Z,93.52
2022-10-19T11:51:46.479Z,91.65
2022-10-19T11:54:29.374Z,91.31
2022-10-19T11:57:04.943Z,90.95
2022-10-19T11:59:46.673Z,90.84
2022-10-19T12:02:41.457Z,91.52
2022-10-19T12:05:14.407Z,90.75
2022-10-19T12:07:56.790Z,90.25
2022-10-19T12:10:33.259Z,90.47
2022-10-19T12:13:04.779Z,91.34
2022-10-19T12:15:36.599Z,90.48
2022-10-19T12:18:11.591Z,89.32
2022-10-19T12:20:44.554Z,90.87
2022-10-19T12:23:27.879Z,91.77
2022-10-19T12:25:58.945Z,92.01
2022-10-19T12:28:30.484Z,92.20
2022-10-19T12:30:59.800Z,92.12
2022-10-19T12:33:40.889Z,91.00
2022-10-19T12:36:23.115Z,92.49
2022-10-19T12:39:01.132Z,91.31
2022-10-19T12:41:36.548Z,91.68
2022-10-19T12:44:20.745Z,91.08
2022-10-19T12:46:53.840Z,90.17
2022-10-19T12:49:38.243Z,91.17
2022-10-19T12:52:08.108Z,91.81
2022-10-19T12:54:39.197Z,91.45
2022-10-19T12:57:26.956Z,91.82
2022-10-19T13:00:07.619Z,91.89
2022-10-19T13:02:37.609Z,89.94
2022-10-19T13:05:06.201Z,89.85
2022-10-19T13:07:37.281Z,90.66
2022-10-19T13:10:09.516Z,89.54
2022-10-19T13:12:47.020Z,88.61
2022-10-19T13:15:59.909Z,88.99
2022-10-19T13:19:06.907Z,87.80
2022-10-19T13:22:00.432Z,87.79
2022-10-19T13:24:32.410Z,86.75
2022-10-19T13:27:39.312Z,86.27
2022-10-19T13:30:47.149Z,86.31
2022-10-19T13:33:51.489Z,85.32
2022-10-19T13:36:20.382Z,86.36
2022-10-19T13:39:03.576Z,86.76
2022-10-19T13:41:47.934Z,86.46
2022-10-19T13:44:21.866Z,86.10
2022-10-19T13:46:58.451Z,85.41
2022-10-19T13:49:41.940Z,86.31
2022-10-19T13:52:37.138Z,87.74
2022-10-19T13:55:34.034Z,87.38
2022-10-19T13:58:25.323Z,87.07
2022-10-19T14:01:19.421Z,87.11
2022-10-19T14:04:14.922Z,86.61
2022-10-19T14:06:47.341Z,87.55
2022-10-19T14:09:29.082Z,87.40
2022-10-19T14:12:06.710Z,86.90
2022-10-19T14:17:20.071Z,85.06
2022-10-19T14:19:51.867Z,84.36
2022-10-19T14:22:21.806Z,82.27
2022-10-19T14:24:49.201Z,81.04
2022-10-19T14:29:58.240Z,78.87
2022-10-19T14:32:27.756Z,79.05
2022-10-19T14:35:01.095Z,79.93
2022-10-19T14:37:28.912Z,81.54
2022-10-19T14:40:01.980Z,79.96
2022-10-19T14:42:41.695Z,80.94
2022-10-19T14:45:18.051Z,79.68
2022-10-19T14:47:56.447Z,79.57
2022-10-19T14:50:30.836Z,82.23
2022-10-19T14:53:04.845Z,82.41
2022-10-19T14:55:38.639Z,83.23
2022-10-19T14:58:13.835Z,84.60
2022-10-19T15:00:41.781Z,85.06
2022-10-19T15:03:13.137Z,84.63
2022-10-19T15:05:48.567Z,85.14
2022-10-19T15:08:23.620Z,87.30
2022-10-19T15:10:51.436Z,87.41
2022-10-19T15:13:25.854Z,86.86
2022-10-19T15:15:54.714Z,87.52
2022-10-19T15:18:47.463Z,87.16
2022-10-19T15:21:18.772Z,88.04
2022-10-19T15:23:47.797Z,88.48
2022-10-19T15:26:20.248Z,88.57
2022-10-19T15:28:49.045Z,88.63
2022-10-19T15:31:19.875Z,88.96
2022-10-19T15:33:52.245Z,89.23
2022-10-19T15:36:23.563Z,89.41
2022-10-19T15:39:11.544Z,89.76
2022-10-19T15:41:49.240Z,90.25
2022-10-19T15:44:32.562Z,90.24
2022-10-19T15:47:20.730Z,90.26
2022-10-19T15:49:57.959Z,90.39
2022-10-19T15:52:28.472Z,90.69
2022-10-19T15:54:57.800Z,91.04
2022-10-19T15:57:28.961Z,90.76
2022-10-19T15:59:58.464Z,91.36
2022-10-19T16:02:26.121Z,91.19
2022-10-19T16:04:53.744Z,91.32
2022-10-19T16:07:28.323Z,91.87
2022-10-19T16:09:56.038Z,92.13
2022-10-19T16:12:24.773Z,92.21
2022-10-19T16:14:52.201Z,92.47
2022-10-19T16:17:20.047Z,92.31
2022-10-19T16:19:47.977Z,92.41
2022-10-19T16:22:16.648Z,92.72
2022-10-19T16:24:45.384Z,92.91
2022-10-19T16:27:14.952Z,92.87
2022-10-19T16:29:42.787Z,92.96
2022-10-19T16:32:10.436Z,93.25
2022-10-19T16:34:38.040Z,92.70
2022-10-19T16:37:07.087Z,92.72
2022-10-19T16:39:35.196Z,92.79
2022-10-19T16:42:04.125Z,92.72
2022-10-19T16:44:31.519Z,92.67
2022-10-19T16:46:59.534Z,92.82
2022-10-19T16:49:27.413Z,92.57
2022-10-19T16:51:57.390Z,92.93
2022-10-19T16:54:26.817Z,92.88
2022-10-19T16:56:55.419Z,92.83
2022-10-19T16:59:24.225Z,92.80
2022-10-19T17:01:51.752Z,92.32
2022-10-19T17:04:19.220Z,92.86
2022-10-19T17:06:46.675Z,92.73
2022-10-19T17:12:01.610Z,93.13
2022-10-19T17:14:30.374Z,93.12
2022-10-19T17:16:57.862Z,92.83
2022-10-19T17:19:25.742Z,92.92
2022-10-19T17:21:55.899Z,93.28
2022-10-19T17:24:23.380Z,93.17
2022-10-19T17:26:51.921Z,93.28
2022-10-19T17:29:20.579Z,92.98
2022-10-19T17:31:50.048Z,93.02
2022-10-19T17:34:18.357Z,93.48
2022-10-19T17:36:46.849Z,93.56
2022-10-19T17:39:17.784Z,93.54
2022-10-19T17:41:45.803Z,93.41
2022-10-19T17:44:13.761Z,93.20
2022-10-19T17:46:41.245Z,94.30
2022-10-19T17:49:10.739Z,94.03
2022-10-19T17:51:39.188Z,93.25
2022-10-19T17:54:08.589Z,93.57
2022-10-19T17:56:37.631Z,93.59
2022-10-19T17:59:07.794Z,93.62
2022-10-19T18:01:35.840Z,93.24
2022-10-19T18:04:03.382Z,93.58
2022-10-19T18:06:33.989Z,93.65
2022-10-19T18:09:02.732Z,93.89
2022-10-19T18:11:32.219Z,93.89
2022-10-19T18:14:01.678Z,94.05
2022-10-19T18:16:31.584Z,94.13
2022-10-19T18:19:00.394Z,94.22
2022-10-19T18:21:30.945Z,94.54
2022-10-19T18:24:01.732Z,94.64
2022-10-19T18:26:30.874Z,94.68
2022-10-19T18:28:59.458Z,94.36
2022-10-19T18:31:29.536Z,94.72
2022-10-19T18:33:59.054Z,94.67
2022-10-19T18:36:26.863Z,94.57
2022-10-19T18:38:55.798Z,94.69
2022-10-19T18:41:25.360Z,95.19
2022-10-19T18:43:55.066Z,95.14
2022-10-19T18:46:24.179Z,94.30
2022-10-19T18:48:52.023Z,93.59
2022-10-19T18:51:21.433Z,93.76
2022-10-19T18:53:48.882Z,93.75
2022-10-19T18:56:18.525Z,94.49
2022-10-19T18:58:47.746Z,94.29
2022-10-19T19:01:16.652Z,94.37
2022-10-19T19:03:46.325Z,94.42
2022-10-19T19:06:16.509Z,94.57
2022-10-19T19:11:19.173Z,94.52
2022-10-19T19:13:51.617Z,94.18
2022-10-19T19:16:19.923Z,94.24
2022-10-19T19:18:47.841Z,94.61
2022-10-19T19:21:17.265Z,94.66
2022-10-19T19:23:44.947Z,95.02
2022-10-19T19:26:13.791Z,94.67
2022-10-19T19:28:42.880Z,94.86
2022-10-19T19:31:15.786Z,94.50
2022-10-19T19:33:45.049Z,94.09
2022-10-19T19:36:14.357Z,94.24
2022-10-19T19:38:42.193Z,94.14
2022-10-19T19:41:12.663Z,94.24
2022-10-19T19:43:40.929Z,94.10
2022-10-19T19:46:12.376Z,94.36
2022-10-19T19:48:43.205Z,94.66
2022-10-19T19:51:11.869Z,94.49
2022-10-19T19:53:39.670Z,94.39
2022-10-19T19:56:08.684Z,94.67
2022-10-19T19:58:36.547Z,94.52
2022-10-19T20:02:13.129Z,94.32
2022-10-19T20:04:42.384Z,94.24
2022-10-19T20:07:35.506Z,94.61
2022-10-19T20:10:00.556Z,94.59
2022-10-19T20:16:25.115Z,94.52
2022-10-19T20:19:25.843Z,94.68
2022-10-19T20:21:56.270Z,95.26
2022-10-19T20:24:53.688Z,95.05
2022-10-19T20:27:21.145Z,95.29
2022-10-19T20:29:49.718Z,95.51
2022-10-19T20:32:17.119Z,95.89
2022-10-19T20:34:44.555Z,95.84
2022-10-19T20:37:13.310Z,95.61
2022-10-19T20:39:40.736Z,95.77
2022-10-19T20:42:08.190Z,95.57
2022-10-19T20:44:35.647Z,95.76
2022-10-19T20:47:03.087Z,96.40
2022-10-19T20:49:30.471Z,96.15
2022-10-19T20:51:57.929Z,96.35
2022-10-19T20:54:27.089Z,96.49
2022-10-19T20:56:54.675Z,96.19
2022-10-19T20:59:26.579Z,96.11
2022-10-19T21:01:56.387Z,96.82
2022-10-19T21:04:25.431Z,97.47
2022-10-19T21:06:53.462Z,98.26
2022-10-19T21:09:22.753Z,98.30
2022-10-19T21:11:52.793Z,98.37
2022-10-19T21:14:25.435Z,98.96
2022-10-19T21:16:57.358Z,98.96
2022-10-19T21:19:26.564Z,99.67
2022-10-19T21:21:56.842Z,99.83
2022-10-19T21:24:27.022Z,99.88
2022-10-19T21:26:55.930Z,99.54
2022-10-19T21:29:23.376Z,99.56
2022-10-19T21:31:53.177Z,99.38
2022-10-19T21:34:21.856Z,98.87
2022-10-19T21:36:49.724Z,98.89
2022-10-19T21:39:17.899Z,99.17
2022-10-19T21:41:45.465Z,98.98
2022-10-19T21:44:15.049Z,99.15
2022-10-19T21:46:43.471Z,98.80
2022-10-19T21:49:11.963Z,98.75
2022-10-19T21:51:43.826Z,98.51
2022-10-19T21:54:13.674Z,98.73
2022-10-19T21:56:41.205Z,98.37
2022-10-19T21:59:08.996Z,98.23
2022-10-19T22:01:40.367Z,98.59
2022-10-19T22:04:11.751Z,98.18
2022-10-19T22:06:39.159Z,98.30
2022-10-19T22:09:08.634Z,97.98
2022-10-19T22:11:36.451Z,98.13
2022-10-19T22:14:04.938Z,97.93
2022-10-19T22:16:33.638Z,97.92
2022-10-19T22:19:02.468Z,98.10
2022-10-19T22:21:31.999Z,98.25
2022-10-19T22:24:01.356Z,98.01
2022-10-19T22:26:30.715Z,97.90
2022-10-19T22:28:59.092Z,98.13
2022-10-19T22:31:28.074Z,98.66
2022-10-19T22:33:55.546Z,98.51
2022-10-19T22:36:24.341Z,98.53
2022-10-19T22:38:51.813Z,98.73
2022-10-19T22:41:19.241Z,98.72
2022-10-19T22:43:46.666Z,98.85
2022-10-19T22:46:14.094Z,99.16
2022-10-19T22:48:41.523Z,99.22
2022-10-19T22:51:08.988Z,99.36
2022-10-19T22:53:37.781Z,99.35
2022-10-19T22:56:05.901Z,99.20
2022-10-19T22:58:33.472Z,99.12
2022-10-19T23:01:06.678Z,99.16
2022-10-19T23:03:34.544Z,99.79
2022-10-19T23:06:02.589Z,99.71
2022-10-19T23:08:30.093Z,99.55
2022-10-19T23:10:58.872Z,99.88
2022-10-19T23:13:26.562Z,99.64
2022-10-19T23:15:54.008Z,99.73
2022-10-19T23:18:21.513Z,99.67
2022-10-19T23:20:56.126Z,99.85
2022-10-19T23:23:24.068Z,100.00
2022-10-19T23:26:00.304Z,100.00
2022-10-19T23:28:28.425Z,100.00
2022-10-19T23:30:58.589Z,99.83
2022-10-19T23:33:26.930Z,99.44
2022-10-19T23:35:54.355Z,99.69
2022-10-19T23:38:21.783Z,99.77
2022-10-19T23:40:49.185Z,99.74
2022-10-19T23:43:17.945Z,99.78
2022-10-19T23:45:46.427Z,100.00
2022-10-19T23:48:13.909Z,99.96
2022-10-19T23:50:41.340Z,99.86
2022-10-19T23:53:08.784Z,100.00
2022-10-19T23:55:36.255Z,100.00
2022-10-19T23:58:03.813Z,100.00
